createdAt,value
2018-12-24T00:00:26.777Z,976.5
2018-12-24T00:01:28.095Z,976.5
2018-12-24T00:02:29.594Z,976.5
2018-12-24T00:03:31.031Z,976.5
2018-12-24T00:04:32.341Z,976.5
2018-12-24T00:05:34.743Z,976.5
2018-12-24T00:06:43.805Z,976.4
2018-12-24T00:07:48.317Z,976.5
2018-12-24T00:08:49.700Z,976.5
2018-12-24T00:09:51.238Z,976.5
2018-12-24T00:10:52.578Z,976.5
2018-12-24T00:11:53.861Z,976.5
2018-12-24T00:12:56.542Z,976.6
2018-12-24T00:13:57.857Z,976.5
2018-12-24T00:15:07.504Z,976.5
2018-12-24T00:16:11.021Z,976.6
2018-12-24T00:17:12.301Z,976.6
2018-12-24T00:18:13.583Z,976.7
2018-12-24T00:19:15.329Z,976.6
2018-12-24T00:20:16.706Z,976.6
2018-12-24T00:21:18.001Z,976.7
2018-12-24T00:22:19.313Z,976.6
2018-12-24T00:23:20.617Z,976.7
2018-12-24T00:24:21.948Z,976.7
2018-12-24T00:25:23.281Z,976.8
2018-12-24T00:26:24.812Z,976.8
2018-12-24T00:27:26.101Z,976.8
2018-12-24T00:28:27.387Z,976.8
2018-12-24T00:29:28.710Z,976.8
2018-12-24T00:30:29.999Z,976.9
2018-12-24T00:31:31.267Z,976.9
2018-12-24T00:32:32.555Z,976.8
2018-12-24T00:33:33.856Z,976.9
2018-12-24T00:34:35.395Z,976.9
2018-12-24T00:35:36.666Z,976.9
2018-12-24T00:36:37.940Z,977
2018-12-24T00:37:39.412Z,977
2018-12-24T00:38:40.730Z,977
2018-12-24T00:39:42.058Z,977
2018-12-24T00:40:43.344Z,977
2018-12-24T00:41:44.632Z,977
2018-12-24T00:42:47.952Z,977.1
2018-12-24T00:43:49.220Z,977
2018-12-24T00:44:50.534Z,977
2018-12-24T00:45:51.796Z,977
2018-12-24T00:46:53.289Z,977.1
2018-12-24T00:47:54.552Z,977.1
2018-12-24T00:48:55.820Z,977.1
2018-12-24T00:49:57.119Z,977
2018-12-24T00:51:00.844Z,977.2
2018-12-24T00:52:02.121Z,977.1
2018-12-24T00:53:03.388Z,977.1
2018-12-24T00:54:04.673Z,977.1
2018-12-24T00:55:05.981Z,977.2
2018-12-24T00:56:07.267Z,977.3
2018-12-24T00:57:08.619Z,977.3
2018-12-24T00:58:09.894Z,977.3
2018-12-24T00:59:11.201Z,977.3
2018-12-24T01:00:12.490Z,977.4
2018-12-24T01:01:13.912Z,977.5
2018-12-24T01:02:15.200Z,977.5
2018-12-24T01:03:16.468Z,977.5
2018-12-24T01:04:17.745Z,977.6
2018-12-24T01:05:19.069Z,977.6
2018-12-24T01:06:21.753Z,977.6
2018-12-24T01:07:23.045Z,977.6
2018-12-24T01:08:24.346Z,977.7
2018-12-24T01:09:25.646Z,977.7
2018-12-24T01:10:26.960Z,977.8
2018-12-24T01:11:31.721Z,977.8
2018-12-24T01:12:33.000Z,977.7
2018-12-24T01:13:34.302Z,977.9
2018-12-24T01:14:36.158Z,977.8
2018-12-24T01:15:38.311Z,977.9
2018-12-24T01:16:39.582Z,977.9
2018-12-24T01:17:40.905Z,977.9
2018-12-24T01:18:42.184Z,977.9
2018-12-24T01:19:43.468Z,977.9
2018-12-24T01:20:44.761Z,977.9
2018-12-24T01:21:46.347Z,977.9
2018-12-24T01:22:47.629Z,978
2018-12-24T01:23:49.313Z,977.9
2018-12-24T01:24:50.670Z,978
2018-12-24T01:25:51.986Z,978
2018-12-24T01:26:53.444Z,978.1
2018-12-24T01:27:54.712Z,978
2018-12-24T01:28:56.102Z,978.1
2018-12-24T01:29:57.396Z,978.1
2018-12-24T01:30:58.693Z,978.1
2018-12-24T01:31:59.988Z,978.2
2018-12-24T01:33:01.277Z,978.2
2018-12-24T01:34:02.628Z,978.3
2018-12-24T01:35:05.278Z,978.3
2018-12-24T01:36:06.672Z,978.3
2018-12-24T01:37:07.973Z,978.3
2018-12-24T01:38:09.240Z,978.3
2018-12-24T01:39:10.570Z,978.3
2018-12-24T01:40:11.851Z,978.4
2018-12-24T01:41:13.156Z,978.5
2018-12-24T01:42:14.432Z,978.4
2018-12-24T01:43:15.709Z,978.4
2018-12-24T01:44:17.066Z,978.4
2018-12-24T01:45:18.687Z,978.5
2018-12-24T01:46:19.988Z,978.5
2018-12-24T01:47:21.280Z,978.5
2018-12-24T01:48:22.557Z,978.5
2018-12-24T01:49:23.828Z,978.5
2018-12-24T01:50:27.269Z,978.6
2018-12-24T01:51:28.664Z,978.6
2018-12-24T01:52:29.924Z,978.7
2018-12-24T01:53:31.209Z,978.6
2018-12-24T01:54:32.821Z,978.7
2018-12-24T01:55:34.116Z,978.7
2018-12-24T01:56:35.428Z,978.7
2018-12-24T01:57:36.706Z,978.7
2018-12-24T01:58:37.990Z,978.7
2018-12-24T01:59:39.272Z,978.7
2018-12-24T02:00:40.550Z,978.7
2018-12-24T02:01:41.872Z,978.8
2018-12-24T02:02:43.165Z,978.8
2018-12-24T02:03:44.428Z,978.7
2018-12-24T02:04:45.700Z,978.8
2018-12-24T02:05:47.064Z,978.8
2018-12-24T02:06:48.410Z,978.8
2018-12-24T02:07:49.687Z,978.8
2018-12-24T02:08:50.989Z,978.9
2018-12-24T02:09:52.257Z,978.8
2018-12-24T02:10:53.517Z,978.8
2018-12-24T02:11:54.835Z,978.8
2018-12-24T02:12:56.129Z,978.9
2018-12-24T02:13:57.429Z,978.9
2018-12-24T02:14:58.712Z,978.9
2018-12-24T02:15:59.998Z,978.9
2018-12-24T02:17:01.392Z,978.9
2018-12-24T02:18:02.775Z,978.9
2018-12-24T02:19:04.044Z,979
2018-12-24T02:20:05.292Z,979
2018-12-24T02:21:07.830Z,979
2018-12-24T02:22:13.644Z,978.9
2018-12-24T02:23:14.920Z,979
2018-12-24T02:24:16.190Z,979
2018-12-24T02:25:17.454Z,979
2018-12-24T02:26:18.733Z,979
2018-12-24T02:27:20.251Z,979.1
2018-12-24T02:28:21.534Z,979.1
2018-12-24T02:29:23.085Z,979.1
2018-12-24T02:30:24.501Z,979.1
2018-12-24T02:31:25.960Z,979.1
2018-12-24T02:32:27.269Z,979.1
2018-12-24T02:33:28.540Z,979.2
2018-12-24T02:34:29.844Z,979.1
2018-12-24T02:35:31.115Z,979.2
2018-12-24T02:36:32.372Z,979.2
2018-12-24T02:37:33.681Z,979.2
2018-12-24T02:38:35.128Z,979.1
2018-12-24T02:39:36.503Z,979.2
2018-12-24T02:40:37.765Z,979.2
2018-12-24T02:41:39.104Z,979.2
2018-12-24T02:42:40.419Z,979.3
2018-12-24T02:43:41.720Z,979.3
2018-12-24T02:44:43.021Z,979.3
2018-12-24T02:45:44.297Z,979.2
2018-12-24T02:46:45.564Z,979.3
2018-12-24T02:47:46.901Z,979.3
2018-12-24T02:48:48.172Z,979.3
2018-12-24T02:49:49.465Z,979.3
2018-12-24T02:50:50.759Z,979.4
2018-12-24T02:51:52.066Z,979.4
2018-12-24T02:52:53.453Z,979.4
2018-12-24T02:53:54.760Z,979.4
2018-12-24T02:54:56.040Z,979.4
2018-12-24T02:56:00.077Z,979.3
2018-12-24T02:57:01.350Z,979.5
2018-12-24T02:58:02.689Z,979.5
2018-12-24T02:59:03.996Z,979.5
2018-12-24T03:00:05.270Z,979.5
2018-12-24T03:01:06.563Z,979.5
2018-12-24T03:02:07.850Z,979.5
2018-12-24T03:03:09.212Z,979.6
2018-12-24T03:04:10.485Z,979.6
2018-12-24T03:05:11.772Z,979.7
2018-12-24T03:06:13.077Z,979.6
2018-12-24T03:07:14.392Z,979.6
2018-12-24T03:08:16.192Z,979.6
2018-12-24T03:09:17.486Z,979.6
2018-12-24T03:10:18.970Z,979.6
2018-12-24T03:11:20.257Z,979.7
2018-12-24T03:12:21.525Z,979.7
2018-12-24T03:13:22.837Z,979.7
2018-12-24T03:14:24.112Z,979.8
2018-12-24T03:15:25.368Z,979.8
2018-12-24T03:16:26.641Z,979.8
2018-12-24T03:17:27.932Z,979.8
2018-12-24T03:18:29.225Z,979.8
2018-12-24T03:19:30.520Z,979.8
2018-12-24T03:20:31.888Z,979.8
2018-12-24T03:21:33.284Z,979.8
2018-12-24T03:22:34.596Z,979.8
2018-12-24T03:23:35.953Z,979.8
2018-12-24T03:24:37.222Z,979.8
2018-12-24T03:25:38.480Z,979.8
2018-12-24T03:26:39.791Z,979.9
2018-12-24T03:27:41.074Z,979.9
2018-12-24T03:28:42.365Z,979.9
2018-12-24T03:29:43.674Z,979.9
2018-12-24T03:30:44.956Z,980
2018-12-24T03:31:46.308Z,980
2018-12-24T03:32:47.608Z,980
2018-12-24T03:33:48.922Z,979.9
2018-12-24T03:34:50.181Z,980
2018-12-24T03:35:51.570Z,980
2018-12-24T03:36:52.869Z,980
2018-12-24T03:37:54.139Z,980.1
2018-12-24T03:38:55.451Z,980.1
2018-12-24T03:39:56.702Z,980.1
2018-12-24T03:40:58.011Z,980
2018-12-24T03:41:59.429Z,980.2
2018-12-24T03:43:00.686Z,980.2
2018-12-24T03:44:02.014Z,980.2
2018-12-24T03:45:03.302Z,980.2
2018-12-24T03:46:04.565Z,980.2
2018-12-24T03:47:05.892Z,980.2
2018-12-24T03:48:07.342Z,980.3
2018-12-24T03:49:08.676Z,980.3
2018-12-24T03:50:09.941Z,980.2
2018-12-24T03:51:13.544Z,980.3
2018-12-24T03:52:15.035Z,980.3
2018-12-24T03:53:16.297Z,980.3
2018-12-24T03:54:17.947Z,980.4
2018-12-24T03:55:19.252Z,980.4
2018-12-24T03:56:20.519Z,980.4
2018-12-24T03:57:21.855Z,980.4
2018-12-24T03:58:23.139Z,980.4
2018-12-24T03:59:24.527Z,980.5
2018-12-24T04:00:25.810Z,980.5
2018-12-24T04:01:27.116Z,980.5
2018-12-24T04:02:28.640Z,980.5
2018-12-24T04:03:29.925Z,980.4
2018-12-24T04:04:31.330Z,980.6
2018-12-24T04:05:32.712Z,980.6
2018-12-24T04:06:34.039Z,980.6
2018-12-24T04:07:35.303Z,980.7
2018-12-24T04:08:36.878Z,980.6
2018-12-24T04:09:38.219Z,980.7
2018-12-24T04:10:39.489Z,980.7
2018-12-24T04:11:41.389Z,980.8
2018-12-24T04:12:42.763Z,980.7
2018-12-24T04:13:44.788Z,980.8
2018-12-24T04:14:46.117Z,980.8
2018-12-24T04:15:47.422Z,980.8
2018-12-24T04:16:48.701Z,980.9
2018-12-24T04:17:50.006Z,980.9
2018-12-24T04:18:51.306Z,980.9
2018-12-24T04:19:52.613Z,980.9
2018-12-24T04:20:53.904Z,981
2018-12-24T04:21:55.186Z,981
2018-12-24T04:22:56.811Z,981
2018-12-24T04:23:58.098Z,981
2018-12-24T04:24:59.409Z,981
2018-12-24T04:26:00.725Z,981.1
2018-12-24T04:27:02.014Z,981.1
2018-12-24T04:28:03.272Z,981.2
2018-12-24T04:29:04.553Z,981.2
2018-12-24T04:30:05.882Z,981.2
2018-12-24T04:31:07.190Z,981.2
2018-12-24T04:32:08.469Z,981.3
2018-12-24T04:33:09.747Z,981.3
2018-12-24T04:34:11.014Z,981.3
2018-12-24T04:35:12.357Z,981.3
2018-12-24T04:36:13.660Z,981.3
2018-12-24T04:37:14.984Z,981.4
2018-12-24T04:38:16.258Z,981.4
2018-12-24T04:39:17.539Z,981.4
2018-12-24T04:40:20.469Z,981.2
2018-12-24T04:41:21.746Z,981.5
2018-12-24T04:42:23.014Z,981.5
2018-12-24T04:43:32.707Z,981.5
2018-12-24T04:44:34.026Z,981.5
2018-12-24T04:45:35.376Z,981.5
2018-12-24T04:46:36.653Z,981.6
2018-12-24T04:47:37.948Z,981.6
2018-12-24T04:48:39.244Z,981.6
2018-12-24T04:49:42.189Z,981.6
2018-12-24T04:50:45.633Z,981.7
2018-12-24T04:51:46.905Z,981.8
2018-12-24T04:52:48.176Z,981.8
2018-12-24T04:53:49.463Z,981.8
2018-12-24T04:54:51.995Z,981.8
2018-12-24T04:55:53.321Z,981.9
2018-12-24T04:56:54.619Z,981.9
2018-12-24T04:57:55.942Z,982
2018-12-24T04:58:57.220Z,982
2018-12-24T04:59:58.493Z,982
2018-12-24T05:00:59.811Z,982
2018-12-24T05:02:01.131Z,982.1
2018-12-24T05:03:02.414Z,982.2
2018-12-24T05:04:03.681Z,982.1
2018-12-24T05:05:04.955Z,982.1
2018-12-24T05:06:06.439Z,982.2
2018-12-24T05:07:07.725Z,982.2
2018-12-24T05:08:09.025Z,982.3
2018-12-24T05:09:10.312Z,982.3
2018-12-24T05:10:11.572Z,982.4
2018-12-24T05:11:12.864Z,982.4
2018-12-24T05:12:14.100Z,982.3
2018-12-24T05:13:15.420Z,982.5
2018-12-24T05:14:16.713Z,982.5
2018-12-24T05:15:17.980Z,982.5
2018-12-24T05:16:19.722Z,982.5
2018-12-24T05:17:21.140Z,982.5
2018-12-24T05:18:22.415Z,982.6
2018-12-24T05:19:23.705Z,982.5
2018-12-24T05:20:25.016Z,982.5
2018-12-24T05:21:26.344Z,982.6
2018-12-24T05:22:27.662Z,982.7
2018-12-24T05:23:28.959Z,982.7
2018-12-24T05:24:30.229Z,982.7
2018-12-24T05:25:31.521Z,982.7
2018-12-24T05:26:32.857Z,982.8
2018-12-24T05:27:34.132Z,982.7
2018-12-24T05:28:35.542Z,982.8
2018-12-24T05:29:36.977Z,982.8
2018-12-24T05:30:38.257Z,982.9
2018-12-24T05:31:39.590Z,982.9
2018-12-24T05:32:40.857Z,982.9
2018-12-24T05:33:42.127Z,983
2018-12-24T05:34:43.388Z,983
2018-12-24T05:35:44.792Z,983
2018-12-24T05:36:46.158Z,983
2018-12-24T05:37:47.441Z,983.1
2018-12-24T05:38:48.733Z,983.1
2018-12-24T05:39:50.005Z,983.2
2018-12-24T05:40:51.291Z,983.1
2018-12-24T05:41:52.720Z,983.2
2018-12-24T05:42:53.993Z,983.2
2018-12-24T05:43:55.249Z,983.2
2018-12-24T05:44:56.518Z,983.2
2018-12-24T05:45:59.994Z,983.3
2018-12-24T05:47:01.312Z,983.4
2018-12-24T05:48:02.612Z,983.4
2018-12-24T05:49:03.888Z,983.4
2018-12-24T05:50:05.180Z,983.4
2018-12-24T05:51:06.448Z,983.5
2018-12-24T05:52:07.783Z,983.5
2018-12-24T05:53:09.365Z,983.5
2018-12-24T05:54:10.691Z,983.6
2018-12-24T05:55:11.971Z,983.6
2018-12-24T05:56:13.377Z,983.7
2018-12-24T05:57:14.706Z,983.7
2018-12-24T05:58:18.381Z,983.7
2018-12-24T05:59:19.655Z,983.7
2018-12-24T06:00:20.928Z,983.7
2018-12-24T06:01:22.226Z,983.7
2018-12-24T06:02:23.520Z,983.8
2018-12-24T06:03:24.835Z,983.8
2018-12-24T06:04:28.880Z,983.9
2018-12-24T06:05:30.289Z,983.9
2018-12-24T06:06:31.544Z,984.1
2018-12-24T06:07:32.873Z,984
2018-12-24T06:08:34.123Z,984
2018-12-24T06:09:35.406Z,984.1
2018-12-24T06:10:36.689Z,984.2
2018-12-24T06:11:37.957Z,984.1
2018-12-24T06:12:39.316Z,984.3
2018-12-24T06:13:40.576Z,984.3
2018-12-24T06:14:41.901Z,984.3
2018-12-24T06:15:43.229Z,984.3
2018-12-24T06:16:44.743Z,984.4
2018-12-24T06:17:46.043Z,984.4
2018-12-24T06:18:47.320Z,984.4
2018-12-24T06:19:48.642Z,984.4
2018-12-24T06:20:49.930Z,984.5
2018-12-24T06:21:51.196Z,984.5
2018-12-24T06:22:52.523Z,984.5
2018-12-24T06:23:53.801Z,984.5
2018-12-24T06:24:55.089Z,984.6
2018-12-24T06:25:56.648Z,984.6
2018-12-24T06:26:58.011Z,984.5
2018-12-24T06:27:59.339Z,984.7
2018-12-24T06:29:00.624Z,984.8
2018-12-24T06:30:01.938Z,984.8
2018-12-24T06:31:03.234Z,984.7
2018-12-24T06:32:04.835Z,984.7
2018-12-24T06:33:06.191Z,984.8
2018-12-24T06:34:07.476Z,984.8
2018-12-24T06:35:08.792Z,984.8
2018-12-24T06:36:10.185Z,984.9
2018-12-24T06:37:11.463Z,984.8
2018-12-24T06:38:12.782Z,984.9
2018-12-24T06:39:14.045Z,984.9
2018-12-24T06:40:15.437Z,984.9
2018-12-24T06:41:16.721Z,984.9
2018-12-24T06:42:19.065Z,984.8
2018-12-24T06:43:20.388Z,984.9
2018-12-24T06:44:21.681Z,985
2018-12-24T06:45:22.968Z,985
2018-12-24T06:46:24.288Z,984.9
2018-12-24T06:47:25.590Z,985
2018-12-24T06:48:28.111Z,984.9
2018-12-24T06:49:32.055Z,985
2018-12-24T06:50:33.318Z,985
2018-12-24T06:51:34.580Z,985.1
2018-12-24T06:52:37.040Z,985.1
2018-12-24T06:53:38.354Z,985.1
2018-12-24T06:54:39.646Z,985.2
2018-12-24T06:55:41.068Z,985.2
2018-12-24T06:56:42.366Z,985.2
2018-12-24T06:57:43.648Z,985.1
2018-12-24T06:58:49.684Z,985.3
2018-12-24T06:59:50.944Z,985.3
2018-12-24T07:00:52.213Z,985.3
2018-12-24T07:01:53.488Z,985.3
2018-12-24T07:02:54.794Z,985.2
2018-12-24T07:03:56.144Z,985.3
2018-12-24T07:04:57.428Z,985.3
2018-12-24T07:05:58.964Z,985.3
2018-12-24T07:07:00.333Z,985.3
2018-12-24T07:08:01.603Z,985.4
2018-12-24T07:09:04.225Z,985.4
2018-12-24T07:10:05.501Z,985.4
2018-12-24T07:11:06.945Z,985.5
2018-12-24T07:12:08.249Z,985.5
2018-12-24T07:13:09.545Z,985.6
2018-12-24T07:14:16.345Z,985.6
2018-12-24T07:15:17.632Z,985.7
2018-12-24T07:16:20.327Z,985.7
2018-12-24T07:17:21.613Z,985.7
2018-12-24T07:18:22.904Z,985.8
2018-12-24T07:19:24.244Z,985.7
2018-12-24T07:20:25.526Z,985.8
2018-12-24T07:21:29.270Z,985.8
2018-12-24T07:22:30.648Z,985.9
2018-12-24T07:23:31.904Z,985.8
2018-12-24T07:24:33.210Z,985.9
2018-12-24T07:25:34.485Z,985.8
2018-12-24T07:26:35.765Z,985.9
2018-12-24T07:27:37.089Z,985.9
2018-12-24T07:28:38.374Z,985.8
2018-12-24T07:29:39.719Z,985.9
2018-12-24T07:30:41.054Z,985.9
2018-12-24T07:31:42.545Z,986
2018-12-24T07:32:43.873Z,986
2018-12-24T07:33:45.253Z,986
2018-12-24T07:34:46.592Z,986
2018-12-24T07:35:47.876Z,986.1
2018-12-24T07:36:49.147Z,986
2018-12-24T07:37:50.434Z,986.1
2018-12-24T07:38:51.745Z,986.2
2018-12-24T07:39:53.105Z,986.1
2018-12-24T07:40:54.407Z,986.2
2018-12-24T07:41:55.721Z,986.3
2018-12-24T07:42:57.253Z,986.3
2018-12-24T07:43:58.563Z,986.3
2018-12-24T07:44:59.901Z,986.3
2018-12-24T07:46:01.211Z,986.4
2018-12-24T07:47:02.511Z,986.3
2018-12-24T07:48:04.124Z,986.3
2018-12-24T07:49:05.417Z,986.4
2018-12-24T07:50:06.727Z,986.3
2018-12-24T07:51:08.012Z,986.5
2018-12-24T07:52:09.335Z,986.5
2018-12-24T07:53:10.631Z,986.5
2018-12-24T07:54:11.945Z,986.5
2018-12-24T07:55:13.283Z,986.4
2018-12-24T07:56:14.548Z,986.5
2018-12-24T07:57:15.813Z,986.5
2018-12-24T07:58:17.110Z,986.5
2018-12-24T07:59:18.407Z,986.5
2018-12-24T08:00:21.122Z,986.6
2018-12-24T08:01:22.520Z,986.6
2018-12-24T08:02:23.826Z,986.6
2018-12-24T08:03:25.405Z,986.6
2018-12-24T08:04:28.637Z,986.6
2018-12-24T08:05:33.253Z,986.7
2018-12-24T08:06:34.528Z,986.7
2018-12-24T08:07:37.418Z,986.7
2018-12-24T08:08:38.725Z,986.7
2018-12-24T08:09:40.024Z,986.8
2018-12-24T08:10:41.327Z,986.8
2018-12-24T08:11:42.599Z,986.8
2018-12-24T08:12:44.156Z,986.9
2018-12-24T08:13:45.425Z,986.9
2018-12-24T08:14:48.910Z,987
2018-12-24T08:15:50.229Z,987
2018-12-24T08:16:51.530Z,986.9
2018-12-24T08:17:52.836Z,986.9
2018-12-24T08:18:54.315Z,987
2018-12-24T08:19:55.629Z,987
2018-12-24T08:20:56.958Z,987
2018-12-24T08:21:58.273Z,987.1
2018-12-24T08:22:59.549Z,987.1
2018-12-24T08:24:00.917Z,987.1
2018-12-24T08:25:02.183Z,987.1
2018-12-24T08:26:03.796Z,987.2
2018-12-24T08:27:05.349Z,987.2
2018-12-24T08:28:06.637Z,987.2
2018-12-24T08:29:10.143Z,987.3
2018-12-24T08:30:11.448Z,987.3
2018-12-24T08:31:12.789Z,987.3
2018-12-24T08:32:14.073Z,987.4
2018-12-24T08:33:15.356Z,987.3
2018-12-24T08:34:16.632Z,987.4
2018-12-24T08:35:17.914Z,987.4
2018-12-24T08:36:22.263Z,987.5
2018-12-24T08:37:23.918Z,987.4
2018-12-24T08:38:25.230Z,987.5
2018-12-24T08:39:26.513Z,987.5
2018-12-24T08:40:30.285Z,987.6
2018-12-24T08:41:31.553Z,987.6
2018-12-24T08:42:32.869Z,987.7
2018-12-24T08:43:34.157Z,987.8
2018-12-24T08:44:45.104Z,987.8
2018-12-24T08:45:46.375Z,987.9
2018-12-24T08:46:47.789Z,987.9
2018-12-24T08:47:49.068Z,988
2018-12-24T08:48:50.353Z,988
2018-12-24T08:49:51.642Z,987.9
2018-12-24T08:50:52.989Z,987.9
2018-12-24T08:51:54.704Z,987.9
2018-12-24T08:52:58.292Z,988
2018-12-24T08:54:00.155Z,988
2018-12-24T08:55:06.071Z,988
2018-12-24T08:56:10.224Z,988
2018-12-24T08:57:11.536Z,988
2018-12-24T08:58:12.805Z,988.1
2018-12-24T08:59:14.393Z,988.1
2018-12-24T09:00:15.677Z,988.1
2018-12-24T09:01:16.969Z,988.1
2018-12-24T09:02:18.299Z,988.2
2018-12-24T09:03:19.597Z,988.3
2018-12-24T09:04:23.352Z,988.2
2018-12-24T09:05:24.677Z,988.2
2018-12-24T09:06:26.260Z,988.3
2018-12-24T09:07:27.581Z,988.2
2018-12-24T09:08:28.917Z,988.3
2018-12-24T09:09:30.193Z,988.2
2018-12-24T09:10:31.501Z,988.2
2018-12-24T09:11:33.927Z,988.3
2018-12-24T09:12:35.364Z,988.2
2018-12-24T09:13:36.666Z,988.2
2018-12-24T09:14:38.284Z,988.3
2018-12-24T09:15:39.586Z,988.3
2018-12-24T09:16:40.877Z,988.3
2018-12-24T09:17:42.958Z,988.4
2018-12-24T09:18:44.294Z,988.4
2018-12-24T09:19:45.616Z,988.4
2018-12-24T09:20:53.835Z,988.4
2018-12-24T09:21:55.135Z,988.4
2018-12-24T09:22:56.485Z,988.4
2018-12-24T09:23:57.768Z,988.3
2018-12-24T09:24:59.051Z,988.4
2018-12-24T09:26:00.345Z,988.5
2018-12-24T09:27:01.638Z,988.5
2018-12-24T09:28:03.048Z,988.5
2018-12-24T09:29:04.376Z,988.5
2018-12-24T09:30:05.882Z,988.5
2018-12-24T09:31:09.690Z,988.6
2018-12-24T09:32:13.127Z,988.6
2018-12-24T09:33:14.485Z,988.5
2018-12-24T09:34:18.306Z,988.6
2018-12-24T09:35:19.600Z,988.6
2018-12-24T09:36:20.893Z,988.6
2018-12-24T09:37:22.321Z,988.7
2018-12-24T09:38:23.741Z,988.7
2018-12-24T09:39:25.051Z,988.7
2018-12-24T09:40:26.321Z,988.7
2018-12-24T09:41:27.705Z,988.7
2018-12-24T09:42:29.004Z,988.7
2018-12-24T09:43:30.344Z,988.7
2018-12-24T09:44:35.737Z,988.8
2018-12-24T09:45:37.056Z,988.8
2018-12-24T09:46:38.352Z,988.9
2018-12-24T09:47:40.670Z,988.8
2018-12-24T09:48:44.619Z,988.8
2018-12-24T09:49:45.926Z,988.9
2018-12-24T09:50:47.328Z,988.9
2018-12-24T09:51:48.673Z,988.8
2018-12-24T09:52:50.221Z,988.9
2018-12-24T09:53:51.621Z,988.9
2018-12-24T09:54:53.245Z,989
2018-12-24T09:55:54.550Z,989
2018-12-24T09:56:56.214Z,989
2018-12-24T09:57:58.541Z,989
2018-12-24T09:59:00.273Z,989
2018-12-24T10:00:01.573Z,989
2018-12-24T10:01:04.685Z,989.1
2018-12-24T10:02:05.977Z,989.1
2018-12-24T10:03:07.259Z,989.2
2018-12-24T10:04:10.321Z,989.1
2018-12-24T10:05:11.715Z,989.2
2018-12-24T10:06:13.077Z,989.3
2018-12-24T10:07:14.417Z,989.2
2018-12-24T10:08:15.760Z,989.3
2018-12-24T10:09:17.094Z,989.4
2018-12-24T10:10:18.433Z,989.3
2018-12-24T10:11:19.757Z,989.3
2018-12-24T10:12:21.445Z,989.3
2018-12-24T10:13:27.678Z,989.3
2018-12-24T10:14:31.999Z,989.4
2018-12-24T10:15:33.296Z,989.4
2018-12-24T10:16:38.636Z,989.4
2018-12-24T10:17:44.693Z,989.4
2018-12-24T10:18:46.659Z,989.5
2018-12-24T10:19:48.239Z,989.4
2018-12-24T10:20:50.550Z,989.5
2018-12-24T10:21:51.958Z,989.4
2018-12-24T10:22:53.290Z,989.5
2018-12-24T10:23:56.802Z,989.7
2018-12-24T10:24:58.142Z,989.6
2018-12-24T10:26:01.041Z,989.6
2018-12-24T10:27:02.682Z,989.6
2018-12-24T10:28:04.054Z,989.6
2018-12-24T10:29:06.490Z,989.7
2018-12-24T10:30:07.853Z,989.8
2018-12-24T10:31:09.168Z,989.8
2018-12-24T10:32:10.450Z,989.8
2018-12-24T10:33:11.749Z,989.8
2018-12-24T10:34:13.046Z,989.8
2018-12-24T10:35:14.398Z,989.9
2018-12-24T10:36:18.434Z,989.8
2018-12-24T10:37:22.029Z,989.8
2018-12-24T10:38:23.357Z,989.7
2018-12-24T10:39:26.638Z,989.8
2018-12-24T10:40:40.242Z,989.9
2018-12-24T10:41:41.818Z,989.9
2018-12-24T10:43:00.721Z,989.9
2018-12-24T10:44:08.633Z,990
2018-12-24T10:45:17.833Z,989.9
2018-12-24T10:46:21.314Z,990
2018-12-24T10:47:22.637Z,990
2018-12-24T10:48:23.974Z,990
2018-12-24T10:49:25.679Z,990
2018-12-24T10:50:27.005Z,990
2018-12-24T10:51:28.410Z,990
2018-12-24T10:52:32.034Z,990
2018-12-24T10:53:38.549Z,990
2018-12-24T10:54:41.268Z,990
2018-12-24T10:55:42.617Z,990
2018-12-24T10:56:44.321Z,990.1
2018-12-24T10:57:46.099Z,990
2018-12-24T10:58:47.511Z,990.1
2018-12-24T10:59:48.910Z,990.2
2018-12-24T11:00:50.234Z,990.1
2018-12-24T11:01:51.573Z,990.2
2018-12-24T11:02:52.916Z,990.1
2018-12-24T11:03:54.335Z,990.2
2018-12-24T11:04:55.637Z,990.1
2018-12-24T11:05:57.058Z,990.2
2018-12-24T11:06:58.388Z,990.1
2018-12-24T11:07:59.865Z,990.1
2018-12-24T11:09:02.898Z,990.1
2018-12-24T11:10:04.222Z,990.2
2018-12-24T11:11:06.609Z,990.1
2018-12-24T11:12:07.987Z,990.1
2018-12-24T11:13:13.634Z,990.2
2018-12-24T11:14:14.939Z,990.1
2018-12-24T11:15:21.286Z,990.1
2018-12-24T11:16:26.314Z,990.1
2018-12-24T11:17:27.911Z,990.2
2018-12-24T11:18:29.305Z,990.2
2018-12-24T11:19:30.618Z,990.2
2018-12-24T11:20:33.073Z,990.2
2018-12-24T11:21:34.572Z,990.2
2018-12-24T11:22:35.942Z,990.2
2018-12-24T11:23:38.301Z,990.1
2018-12-24T11:24:39.597Z,990.2
2018-12-24T11:25:45.502Z,990.2
2018-12-24T11:26:46.832Z,990.1
2018-12-24T11:27:48.182Z,990.2
2018-12-24T11:28:49.522Z,990.1
2018-12-24T11:29:50.869Z,990.2
2018-12-24T11:30:52.165Z,990.2
2018-12-24T11:31:53.485Z,990.2
2018-12-24T11:32:57.145Z,990.2
2018-12-24T11:33:58.757Z,990.2
2018-12-24T11:35:06.134Z,990.2
2018-12-24T11:36:07.661Z,990.2
2018-12-24T11:37:11.034Z,990.3
2018-12-24T11:38:12.407Z,990.3
2018-12-24T11:39:13.732Z,990.1
2018-12-24T11:40:15.056Z,990.2
2018-12-24T11:41:16.665Z,990.2
2018-12-24T11:42:17.948Z,990.2
2018-12-24T11:43:22.061Z,990.2
2018-12-24T11:44:23.434Z,990.2
2018-12-24T11:45:33.565Z,990.2
2018-12-24T11:46:35.093Z,990.2
2018-12-24T11:47:39.759Z,990.2
2018-12-24T11:48:44.284Z,990.3
2018-12-24T11:49:46.834Z,990.2
2018-12-24T11:50:48.589Z,990.2
2018-12-24T11:51:49.908Z,990.2
2018-12-24T11:52:51.401Z,990.3
2018-12-24T11:53:52.858Z,990.2
2018-12-24T11:54:54.279Z,990.2
2018-12-24T11:55:55.567Z,990.3
2018-12-24T11:56:56.861Z,990.2
2018-12-24T11:57:58.385Z,990.3
2018-12-24T11:59:01.095Z,990.3
2018-12-24T12:00:02.435Z,990.4
2018-12-24T12:01:03.709Z,990.5
2018-12-24T12:02:10.780Z,990.4
2018-12-24T12:03:13.539Z,990.4
2018-12-24T12:04:14.941Z,990.4
2018-12-24T12:05:16.235Z,990.5
2018-12-24T12:06:21.076Z,990.5
2018-12-24T12:07:22.425Z,990.4
2018-12-24T12:08:23.719Z,990.5
2018-12-24T12:09:25.422Z,990.5
2018-12-24T12:10:26.727Z,990.5
2018-12-24T12:11:28.010Z,990.4
2018-12-24T12:12:29.330Z,990.5
2018-12-24T12:13:30.664Z,990.4
2018-12-24T12:14:32.026Z,990.6
2018-12-24T12:15:33.601Z,990.5
2018-12-24T12:16:34.884Z,990.6
2018-12-24T12:17:36.236Z,990.7
2018-12-24T12:18:37.627Z,990.7
2018-12-24T12:19:41.309Z,990.7
2018-12-24T12:20:42.599Z,990.6
2018-12-24T12:21:43.944Z,990.7
2018-12-24T12:23:55.250Z,990.6
2018-12-24T12:24:57.712Z,990.8
2018-12-24T12:25:59.122Z,990.8
2018-12-24T12:27:00.791Z,990.8
2018-12-24T12:28:02.113Z,990.9
2018-12-24T12:29:03.410Z,990.9
2018-12-24T12:30:04.728Z,990.9
2018-12-24T12:31:06.042Z,990.9
2018-12-24T12:32:07.620Z,990.9
2018-12-24T12:33:08.924Z,990.9
2018-12-24T12:34:10.434Z,990.9
2018-12-24T12:35:11.905Z,990.9
2018-12-24T12:36:13.209Z,990.9
2018-12-24T12:37:14.496Z,990.9
2018-12-24T12:38:16.865Z,990.9
2018-12-24T12:39:18.166Z,991
2018-12-24T12:40:19.507Z,991
2018-12-24T12:41:23.344Z,991
2018-12-24T12:42:24.709Z,991
2018-12-24T12:43:26.012Z,991
2018-12-24T12:44:28.449Z,991
2018-12-24T12:45:29.810Z,991
2018-12-24T12:46:34.116Z,991
2018-12-24T12:47:35.416Z,991.1
2018-12-24T12:48:36.688Z,991.1
2018-12-24T12:49:38.105Z,991
2018-12-24T12:50:39.476Z,990.9
2018-12-24T12:51:40.958Z,991
2018-12-24T12:52:42.258Z,991.1
2018-12-24T12:53:43.567Z,991.1
2018-12-24T12:54:44.852Z,991
2018-12-24T12:55:46.249Z,991.1
2018-12-24T12:56:48.824Z,991.2
2018-12-24T12:57:52.220Z,991.2
2018-12-24T12:58:53.570Z,991.2
2018-12-24T12:59:55.176Z,991.2
2018-12-24T13:00:57.513Z,991.2
2018-12-24T13:01:59.053Z,991.2
2018-12-24T13:03:00.327Z,991.2
2018-12-24T13:04:02.173Z,991.2
2018-12-24T13:05:08.308Z,991.4
2018-12-24T13:06:10.170Z,991.4
2018-12-24T13:07:11.465Z,991.4
2018-12-24T13:08:12.770Z,991.4
2018-12-24T13:09:16.106Z,991.5
2018-12-24T13:10:17.399Z,991.6
2018-12-24T13:11:19.333Z,991.6
2018-12-24T13:12:20.737Z,991.5
2018-12-24T13:13:22.836Z,991.6
2018-12-24T13:14:24.182Z,991.6
2018-12-24T13:15:25.459Z,991.6
2018-12-24T13:16:26.976Z,991.7
2018-12-24T13:17:28.301Z,991.7
2018-12-24T13:18:29.583Z,991.7
2018-12-24T13:19:31.082Z,991.7
2018-12-24T13:20:32.394Z,991.8
2018-12-24T13:21:43.240Z,991.8
2018-12-24T13:22:44.530Z,991.7